sensor_id;sensor_type;location;lat;lon;timestamp;P1;durP1;ratioP1;P2;durP2;ratioP2
68216;SDS011;55037;52.354;4.992;2022-09-27T00:01:03;4.47;;;0.80;;
68216;SDS011;55037;52.354;4.992;2022-09-27T00:03:36;3.88;;;0.82;;
68216;SDS011;55037;52.354;4.992;2022-09-27T00:06:07;3.60;;;0.90;;
68216;SDS011;55037;52.354;4.992;2022-09-27T00:08:55;5.72;;;0.93;;
68216;SDS011;55037;52.354;4.992;2022-09-27T00:13:53;3.67;;;0.80;;
68216;SDS011;55037;52.354;4.992;2022-09-27T00:16:22;5.78;;;1.20;;
68216;SDS011;55037;52.354;4.992;2022-09-27T00:18:52;5.38;;;0.80;;
68216;SDS011;55037;52.354;4.992;2022-09-27T00:21:23;4.60;;;0.80;;
68216;SDS011;55037;52.354;4.992;2022-09-27T00:23:51;5.95;;;0.80;;
68216;SDS011;55037;52.354;4.992;2022-09-27T00:26:18;4.53;;;0.80;;
68216;SDS011;55037;52.354;4.992;2022-09-27T00:28:45;5.25;;;1.00;;
68216;SDS011;55037;52.354;4.992;2022-09-27T00:31:19;5.60;;;1.10;;
68216;SDS011;55037;52.354;4.992;2022-09-27T00:33:48;6.93;;;0.90;;
68216;SDS011;55037;52.354;4.992;2022-09-27T00:36:17;5.68;;;0.80;;
68216;SDS011;55037;52.354;4.992;2022-09-27T00:38:46;5.78;;;0.80;;
68216;SDS011;55037;52.354;4.992;2022-09-27T00:41:24;4.72;;;0.80;;
68216;SDS011;55037;52.354;4.992;2022-09-27T00:46:38;6.70;;;0.90;;
68216;SDS011;55037;52.354;4.992;2022-09-27T00:49:17;5.47;;;0.85;;
68216;SDS011;55037;52.354;4.992;2022-09-27T00:51:53;5.57;;;0.90;;
68216;SDS011;55037;52.354;4.992;2022-09-27T00:54:24;5.45;;;1.00;;
68216;SDS011;55037;52.354;4.992;2022-09-27T00:56:54;4.78;;;0.90;;
68216;SDS011;55037;52.354;4.992;2022-09-27T01:01:54;6.80;;;1.30;;
68216;SDS011;55037;52.354;4.992;2022-09-27T01:04:23;5.78;;;1.52;;
68216;SDS011;55037;52.354;4.992;2022-09-27T01:06:53;7.45;;;1.50;;
68216;SDS011;55037;52.354;4.992;2022-09-27T01:09:20;7.45;;;1.40;;
68216;SDS011;55037;52.354;4.992;2022-09-27T01:18:00;11.17;;;2.10;;
68216;SDS011;55037;52.354;4.992;2022-09-27T01:24:00;8.90;;;2.25;;
68216;SDS011;55037;52.354;4.992;2022-09-27T01:29:16;11.82;;;1.67;;
68216;SDS011;55037;52.354;4.992;2022-09-27T01:31:55;9.48;;;1.80;;
68216;SDS011;55037;52.354;4.992;2022-09-27T01:34:47;7.68;;;1.63;;
68216;SDS011;55037;52.354;4.992;2022-09-27T01:37:35;8.90;;;1.83;;
68216;SDS011;55037;52.354;4.992;2022-09-27T01:43:22;9.32;;;1.50;;
68216;SDS011;55037;52.354;4.992;2022-09-27T01:46:07;8.55;;;1.40;;
68216;SDS011;55037;52.354;4.992;2022-09-27T01:49:01;8.40;;;1.20;;
68216;SDS011;55037;52.354;4.992;2022-09-27T01:51:42;7.90;;;1.40;;
68216;SDS011;55037;52.354;4.992;2022-09-27T01:54:20;5.93;;;1.00;;
68216;SDS011;55037;52.354;4.992;2022-09-27T01:57:09;9.18;;;1.15;;
68216;SDS011;55037;52.354;4.992;2022-09-27T01:59:47;7.82;;;1.42;;
68216;SDS011;55037;52.354;4.992;2022-09-27T02:02:41;6.07;;;1.20;;
68216;SDS011;55037;52.354;4.992;2022-09-27T02:05:27;5.83;;;1.10;;
68216;SDS011;55037;52.354;4.992;2022-09-27T02:08:09;7.28;;;1.33;;
68216;SDS011;55037;52.354;4.992;2022-09-27T02:10:44;8.00;;;1.48;;
68216;SDS011;55037;52.354;4.992;2022-09-27T02:13:19;8.48;;;1.42;;
68216;SDS011;55037;52.354;4.992;2022-09-27T02:19:14;6.50;;;1.40;;
68216;SDS011;55037;52.354;4.992;2022-09-27T02:27:19;7.03;;;0.95;;
68216;SDS011;55037;52.354;4.992;2022-09-27T02:29:56;6.27;;;1.00;;
68216;SDS011;55037;52.354;4.992;2022-09-27T02:32:30;5.55;;;0.93;;
68216;SDS011;55037;52.354;4.992;2022-09-27T02:35:00;4.75;;;0.95;;
68216;SDS011;55037;52.354;4.992;2022-09-27T02:37:31;6.25;;;1.17;;
68216;SDS011;55037;52.354;4.992;2022-09-27T02:39:59;5.50;;;1.63;;
68216;SDS011;55037;52.354;4.992;2022-09-27T02:42:27;6.53;;;1.23;;
68216;SDS011;55037;52.354;4.992;2022-09-27T02:44:55;6.77;;;1.30;;
68216;SDS011;55037;52.354;4.992;2022-09-27T02:53:28;7.28;;;1.02;;
68216;SDS011;55037;52.354;4.992;2022-09-27T02:56:42;6.07;;;1.20;;
68216;SDS011;55037;52.354;4.992;2022-09-27T03:05:23;7.30;;;1.10;;
68216;SDS011;55037;52.354;4.992;2022-09-27T03:07:55;10.45;;;1.15;;
68216;SDS011;55037;52.354;4.992;2022-09-27T03:10:25;6.13;;;1.20;;
68216;SDS011;55037;52.354;4.992;2022-09-27T03:12:53;6.53;;;1.20;;
68216;SDS011;55037;52.354;4.992;2022-09-27T03:15:22;7.18;;;1.02;;
68216;SDS011;55037;52.354;4.992;2022-09-27T03:17:58;4.78;;;1.05;;
68216;SDS011;55037;52.354;4.992;2022-09-27T03:20:58;6.93;;;1.40;;
68216;SDS011;55037;52.354;4.992;2022-09-27T03:23:26;7.38;;;1.00;;
68216;SDS011;55037;52.354;4.992;2022-09-27T03:25:54;6.90;;;1.00;;
68216;SDS011;55037;52.354;4.992;2022-09-27T03:28:21;5.67;;;1.00;;
68216;SDS011;55037;52.354;4.992;2022-09-27T03:30:49;7.00;;;1.17;;
68216;SDS011;55037;52.354;4.992;2022-09-27T03:33:39;4.93;;;1.00;;
68216;SDS011;55037;52.354;4.992;2022-09-27T03:36:09;6.53;;;0.90;;
68216;SDS011;55037;52.354;4.992;2022-09-27T03:38:37;5.30;;;1.05;;
68216;SDS011;55037;52.354;4.992;2022-09-27T03:41:07;4.47;;;0.95;;
68216;SDS011;55037;52.354;4.992;2022-09-27T03:43:34;5.37;;;1.00;;
68216;SDS011;55037;52.354;4.992;2022-09-27T03:46:03;5.13;;;1.07;;
68216;SDS011;55037;52.354;4.992;2022-09-27T03:48:30;6.10;;;1.13;;
68216;SDS011;55037;52.354;4.992;2022-09-27T03:50:58;5.97;;;0.90;;
68216;SDS011;55037;52.354;4.992;2022-09-27T03:53:25;5.35;;;1.10;;
68216;SDS011;55037;52.354;4.992;2022-09-27T03:55:52;6.20;;;1.05;;
68216;SDS011;55037;52.354;4.992;2022-09-27T03:58:20;5.93;;;1.00;;
68216;SDS011;55037;52.354;4.992;2022-09-27T04:00:47;6.28;;;1.00;;
68216;SDS011;55037;52.354;4.992;2022-09-27T04:03:15;6.93;;;1.55;;
68216;SDS011;55037;52.354;4.992;2022-09-27T04:05:48;7.50;;;1.23;;
68216;SDS011;55037;52.354;4.992;2022-09-27T04:08:19;5.13;;;1.08;;
68216;SDS011;55037;52.354;4.992;2022-09-27T04:10:50;7.60;;;1.20;;
68216;SDS011;55037;52.354;4.992;2022-09-27T04:13:17;5.93;;;0.97;;
68216;SDS011;55037;52.354;4.992;2022-09-27T04:15:51;6.10;;;1.08;;
68216;SDS011;55037;52.354;4.992;2022-09-27T04:18:38;4.32;;;1.10;;
68216;SDS011;55037;52.354;4.992;2022-09-27T04:21:25;4.28;;;0.70;;
68216;SDS011;55037;52.354;4.992;2022-09-27T04:23:54;4.57;;;1.00;;
68216;SDS011;55037;52.354;4.992;2022-09-27T04:26:22;5.18;;;0.90;;
68216;SDS011;55037;52.354;4.992;2022-09-27T04:29:10;5.07;;;1.15;;
68216;SDS011;55037;52.354;4.992;2022-09-27T04:31:41;3.70;;;0.98;;
68216;SDS011;55037;52.354;4.992;2022-09-27T04:34:24;3.63;;;0.80;;
68216;SDS011;55037;52.354;4.992;2022-09-27T04:37:18;3.63;;;0.70;;
68216;SDS011;55037;52.354;4.992;2022-09-27T04:39:48;3.45;;;0.70;;
68216;SDS011;55037;52.354;4.992;2022-09-27T04:42:15;3.83;;;0.70;;
68216;SDS011;55037;52.354;4.992;2022-09-27T04:44:43;3.03;;;0.70;;
68216;SDS011;55037;52.354;4.992;2022-09-27T04:47:11;3.58;;;0.80;;
68216;SDS011;55037;52.354;4.992;2022-09-27T04:49:40;3.37;;;0.67;;
68216;SDS011;55037;52.354;4.992;2022-09-27T04:52:07;3.05;;;0.70;;
68216;SDS011;55037;52.354;4.992;2022-09-27T04:54:35;3.83;;;0.80;;
68216;SDS011;55037;52.354;4.992;2022-09-27T04:57:10;2.47;;;0.70;;
68216;SDS011;55037;52.354;4.992;2022-09-27T04:59:39;3.08;;;0.90;;
68216;SDS011;55037;52.354;4.992;2022-09-27T05:02:07;2.33;;;0.65;;
68216;SDS011;55037;52.354;4.992;2022-09-27T05:04:57;3.47;;;0.90;;
68216;SDS011;55037;52.354;4.992;2022-09-27T05:07:29;3.83;;;0.73;;
68216;SDS011;55037;52.354;4.992;2022-09-27T05:10:04;5.72;;;1.00;;
68216;SDS011;55037;52.354;4.992;2022-09-27T05:12:32;3.75;;;0.82;;
68216;SDS011;55037;52.354;4.992;2022-09-27T05:15:01;8.18;;;0.90;;
68216;SDS011;55037;52.354;4.992;2022-09-27T05:17:49;3.92;;;0.75;;
68216;SDS011;55037;52.354;4.992;2022-09-27T05:20:36;4.55;;;0.88;;
68216;SDS011;55037;52.354;4.992;2022-09-27T05:23:16;5.40;;;1.20;;
68216;SDS011;55037;52.354;4.992;2022-09-27T05:25:43;5.25;;;0.98;;
68216;SDS011;55037;52.354;4.992;2022-09-27T05:28:11;3.33;;;0.70;;
68216;SDS011;55037;52.354;4.992;2022-09-27T05:30:38;8.45;;;0.98;;
68216;SDS011;55037;52.354;4.992;2022-09-27T05:33:14;5.97;;;0.80;;
68216;SDS011;55037;52.354;4.992;2022-09-27T05:35:54;5.95;;;1.00;;
68216;SDS011;55037;52.354;4.992;2022-09-27T05:38:26;6.07;;;0.98;;
68216;SDS011;55037;52.354;4.992;2022-09-27T05:40:56;6.90;;;0.90;;
68216;SDS011;55037;52.354;4.992;2022-09-27T05:43:24;4.85;;;1.00;;
68216;SDS011;55037;52.354;4.992;2022-09-27T05:45:52;4.87;;;1.00;;
68216;SDS011;55037;52.354;4.992;2022-09-27T05:48:20;4.10;;;0.90;;
68216;SDS011;55037;52.354;4.992;2022-09-27T05:51:05;6.82;;;0.90;;
68216;SDS011;55037;52.354;4.992;2022-09-27T05:53:35;6.53;;;0.90;;
68216;SDS011;55037;52.354;4.992;2022-09-27T05:56:06;5.03;;;1.08;;
68216;SDS011;55037;52.354;4.992;2022-09-27T05:58:53;6.55;;;1.10;;
68216;SDS011;55037;52.354;4.992;2022-09-27T06:01:21;6.90;;;1.15;;
68216;SDS011;55037;52.354;4.992;2022-09-27T06:04:18;4.77;;;0.90;;
68216;SDS011;55037;52.354;4.992;2022-09-27T06:07:15;7.07;;;1.20;;
68216;SDS011;55037;52.354;4.992;2022-09-27T06:09:42;5.50;;;1.10;;
68216;SDS011;55037;52.354;4.992;2022-09-27T06:12:11;5.90;;;1.20;;
68216;SDS011;55037;52.354;4.992;2022-09-27T06:14:39;6.68;;;1.10;;
68216;SDS011;55037;52.354;4.992;2022-09-27T06:17:12;4.88;;;0.93;;
68216;SDS011;55037;52.354;4.992;2022-09-27T06:19:42;6.60;;;1.10;;
68216;SDS011;55037;52.354;4.992;2022-09-27T06:22:11;10.25;;;1.00;;
68216;SDS011;55037;52.354;4.992;2022-09-27T06:24:50;8.63;;;1.10;;
68216;SDS011;55037;52.354;4.992;2022-09-27T06:27:21;5.33;;;0.80;;
68216;SDS011;55037;52.354;4.992;2022-09-27T06:30:09;7.23;;;1.07;;
68216;SDS011;55037;52.354;4.992;2022-09-27T06:32:46;4.63;;;0.90;;
68216;SDS011;55037;52.354;4.992;2022-09-27T06:35:21;4.85;;;1.00;;
68216;SDS011;55037;52.354;4.992;2022-09-27T06:37:50;6.30;;;0.95;;
68216;SDS011;55037;52.354;4.992;2022-09-27T06:40:19;6.60;;;1.05;;
68216;SDS011;55037;52.354;4.992;2022-09-27T06:42:50;5.40;;;0.90;;
68216;SDS011;55037;52.354;4.992;2022-09-27T06:45:41;6.47;;;1.00;;
68216;SDS011;55037;52.354;4.992;2022-09-27T06:48:40;7.10;;;1.00;;
68216;SDS011;55037;52.354;4.992;2022-09-27T06:51:15;7.03;;;0.90;;
68216;SDS011;55037;52.354;4.992;2022-09-27T06:53:42;5.78;;;1.20;;
68216;SDS011;55037;52.354;4.992;2022-09-27T06:56:10;6.80;;;1.30;;
68216;SDS011;55037;52.354;4.992;2022-09-27T06:58:44;7.47;;;1.20;;
68216;SDS011;55037;52.354;4.992;2022-09-27T07:01:42;10.57;;;1.73;;
68216;SDS011;55037;52.354;4.992;2022-09-27T07:04:29;7.93;;;1.20;;
68216;SDS011;55037;52.354;4.992;2022-09-27T07:06:56;6.63;;;1.10;;
68216;SDS011;55037;52.354;4.992;2022-09-27T07:09:26;10.13;;;1.30;;
68216;SDS011;55037;52.354;4.992;2022-09-27T07:11:54;6.63;;;1.30;;
68216;SDS011;55037;52.354;4.992;2022-09-27T07:14:21;7.13;;;1.48;;
68216;SDS011;55037;52.354;4.992;2022-09-27T07:16:49;6.97;;;1.40;;
68216;SDS011;55037;52.354;4.992;2022-09-27T07:19:17;6.67;;;1.27;;
68216;SDS011;55037;52.354;4.992;2022-09-27T07:21:46;5.65;;;1.25;;
68216;SDS011;55037;52.354;4.992;2022-09-27T07:24:13;5.30;;;1.10;;
68216;SDS011;55037;52.354;4.992;2022-09-27T07:26:41;7.97;;;1.30;;
68216;SDS011;55037;52.354;4.992;2022-09-27T07:29:10;8.50;;;1.30;;
68216;SDS011;55037;52.354;4.992;2022-09-27T07:31:37;6.57;;;1.30;;
68216;SDS011;55037;52.354;4.992;2022-09-27T07:34:05;6.03;;;1.27;;
68216;SDS011;55037;52.354;4.992;2022-09-27T07:36:32;7.45;;;1.58;;
68216;SDS011;55037;52.354;4.992;2022-09-27T07:39:00;9.27;;;1.60;;
68216;SDS011;55037;52.354;4.992;2022-09-27T07:41:30;5.73;;;1.47;;
68216;SDS011;55037;52.354;4.992;2022-09-27T07:43:57;8.07;;;1.52;;
68216;SDS011;55037;52.354;4.992;2022-09-27T07:46:25;7.90;;;1.50;;
68216;SDS011;55037;52.354;4.992;2022-09-27T07:49:05;4.63;;;1.20;;
68216;SDS011;55037;52.354;4.992;2022-09-27T07:51:51;6.72;;;1.30;;
68216;SDS011;55037;52.354;4.992;2022-09-27T07:54:31;8.13;;;1.40;;
68216;SDS011;55037;52.354;4.992;2022-09-27T07:57:13;4.97;;;1.10;;
68216;SDS011;55037;52.354;4.992;2022-09-27T07:59:48;3.63;;;0.82;;
68216;SDS011;55037;52.354;4.992;2022-09-27T08:02:17;3.60;;;0.70;;
68216;SDS011;55037;52.354;4.992;2022-09-27T08:04:47;2.42;;;0.65;;
68216;SDS011;55037;52.354;4.992;2022-09-27T08:07:14;2.72;;;0.60;;
68216;SDS011;55037;52.354;4.992;2022-09-27T08:09:45;3.20;;;0.70;;
68216;SDS011;55037;52.354;4.992;2022-09-27T08:12:12;3.00;;;0.70;;
68216;SDS011;55037;52.354;4.992;2022-09-27T08:14:39;3.63;;;1.00;;
68216;SDS011;55037;52.354;4.992;2022-09-27T08:17:14;3.53;;;0.80;;
68216;SDS011;55037;52.354;4.992;2022-09-27T08:20:11;5.63;;;0.90;;
68216;SDS011;55037;52.354;4.992;2022-09-27T08:22:51;3.80;;;0.70;;
68216;SDS011;55037;52.354;4.992;2022-09-27T08:25:41;4.75;;;0.80;;
68216;SDS011;55037;52.354;4.992;2022-09-27T08:28:25;2.60;;;0.63;;
68216;SDS011;55037;52.354;4.992;2022-09-27T08:30:59;3.30;;;0.80;;
68216;SDS011;55037;52.354;4.992;2022-09-27T08:33:26;4.18;;;1.00;;
68216;SDS011;55037;52.354;4.992;2022-09-27T08:35:58;4.32;;;1.00;;
68216;SDS011;55037;52.354;4.992;2022-09-27T08:38:27;6.20;;;1.20;;
68216;SDS011;55037;52.354;4.992;2022-09-27T08:40:56;4.43;;;1.00;;
68216;SDS011;55037;52.354;4.992;2022-09-27T08:49:16;4.15;;;1.05;;
68216;SDS011;55037;52.354;4.992;2022-09-27T08:52:12;6.97;;;1.20;;
68216;SDS011;55037;52.354;4.992;2022-09-27T08:54:47;5.13;;;1.00;;
68216;SDS011;55037;52.354;4.992;2022-09-27T08:57:16;4.60;;;1.10;;
68216;SDS011;55037;52.354;4.992;2022-09-27T08:59:46;4.97;;;0.90;;
68216;SDS011;55037;52.354;4.992;2022-09-27T09:02:27;5.70;;;1.30;;
68216;SDS011;55037;52.354;4.992;2022-09-27T09:04:55;5.38;;;1.00;;
68216;SDS011;55037;52.354;4.992;2022-09-27T09:07:53;3.70;;;0.80;;
68216;SDS011;55037;52.354;4.992;2022-09-27T09:13:45;8.13;;;1.38;;
68216;SDS011;55037;52.354;4.992;2022-09-27T09:16:31;4.85;;;1.17;;
68216;SDS011;55037;52.354;4.992;2022-09-27T09:22:29;7.10;;;1.10;;
68216;SDS011;55037;52.354;4.992;2022-09-27T09:25:20;5.40;;;1.00;;
68216;SDS011;55037;52.354;4.992;2022-09-27T09:31:07;7.90;;;1.35;;
68216;SDS011;55037;52.354;4.992;2022-09-27T09:33:54;5.68;;;1.05;;
68216;SDS011;55037;52.354;4.992;2022-09-27T09:39:26;8.90;;;1.20;;
68216;SDS011;55037;52.354;4.992;2022-09-27T09:42:06;4.97;;;1.10;;
68216;SDS011;55037;52.354;4.992;2022-09-27T09:44:53;6.70;;;1.02;;
68216;SDS011;55037;52.354;4.992;2022-09-27T09:50:15;3.55;;;1.00;;
68216;SDS011;55037;52.354;4.992;2022-09-27T09:52:49;3.90;;;0.80;;
68216;SDS011;55037;52.354;4.992;2022-09-27T09:55:27;4.53;;;1.10;;
68216;SDS011;55037;52.354;4.992;2022-09-27T10:00:49;7.45;;;1.30;;
68216;SDS011;55037;52.354;4.992;2022-09-27T10:03:19;6.53;;;1.00;;
68216;SDS011;55037;52.354;4.992;2022-09-27T10:05:48;6.57;;;1.17;;
68216;SDS011;55037;52.354;4.992;2022-09-27T10:08:20;6.40;;;1.00;;
68216;SDS011;55037;52.354;4.992;2022-09-27T10:10:57;5.10;;;1.17;;
68216;SDS011;55037;52.354;4.992;2022-09-27T10:13:42;7.13;;;1.33;;
68216;SDS011;55037;52.354;4.992;2022-09-27T10:16:10;6.13;;;1.05;;
68216;SDS011;55037;52.354;4.992;2022-09-27T10:18:40;6.27;;;1.20;;
68216;SDS011;55037;52.354;4.992;2022-09-27T10:21:24;6.22;;;1.10;;
68216;SDS011;55037;52.354;4.992;2022-09-27T10:26:50;7.55;;;1.30;;
68216;SDS011;55037;52.354;4.992;2022-09-27T10:29:31;5.95;;;1.40;;
68216;SDS011;55037;52.354;4.992;2022-09-27T10:32:17;5.40;;;1.10;;
68216;SDS011;55037;52.354;4.992;2022-09-27T10:34:50;6.32;;;1.38;;
68216;SDS011;55037;52.354;4.992;2022-09-27T10:37:20;8.75;;;1.20;;
68216;SDS011;55037;52.354;4.992;2022-09-27T10:39:57;5.90;;;1.10;;
68216;SDS011;55037;52.354;4.992;2022-09-27T10:42:35;4.60;;;1.07;;
68216;SDS011;55037;52.354;4.992;2022-09-27T10:48:17;5.80;;;1.20;;
68216;SDS011;55037;52.354;4.992;2022-09-27T10:50:55;6.97;;;1.30;;
68216;SDS011;55037;52.354;4.992;2022-09-27T10:53:43;6.30;;;1.23;;
68216;SDS011;55037;52.354;4.992;2022-09-27T10:56:28;8.10;;;1.20;;
68216;SDS011;55037;52.354;4.992;2022-09-27T10:58:59;6.95;;;1.60;;
68216;SDS011;55037;52.354;4.992;2022-09-27T11:01:44;7.03;;;1.50;;
68216;SDS011;55037;52.354;4.992;2022-09-27T11:04:34;5.38;;;1.42;;
68216;SDS011;55037;52.354;4.992;2022-09-27T11:09:57;7.43;;;1.30;;
68216;SDS011;55037;52.354;4.992;2022-09-27T11:12:33;5.07;;;1.23;;
68216;SDS011;55037;52.354;4.992;2022-09-27T11:15:03;4.75;;;1.25;;
68216;SDS011;55037;52.354;4.992;2022-09-27T11:17:40;5.87;;;1.43;;
68216;SDS011;55037;52.354;4.992;2022-09-27T11:20:38;6.80;;;1.38;;
68216;SDS011;55037;52.354;4.992;2022-09-27T11:23:31;6.00;;;1.20;;
68216;SDS011;55037;52.354;4.992;2022-09-27T11:26:36;5.10;;;1.20;;
68216;SDS011;55037;52.354;4.992;2022-09-27T11:38:30;6.68;;;1.23;;
68216;SDS011;55037;52.354;4.992;2022-09-27T11:53:27;5.60;;;1.23;;
68216;SDS011;55037;52.354;4.992;2022-09-27T11:56:06;7.05;;;1.42;;
68216;SDS011;55037;52.354;4.992;2022-09-27T12:02:00;5.13;;;1.00;;
68216;SDS011;55037;52.354;4.992;2022-09-27T12:04:50;6.32;;;0.98;;
68216;SDS011;55037;52.354;4.992;2022-09-27T12:10:16;3.97;;;1.10;;
68216;SDS011;55037;52.354;4.992;2022-09-27T12:12:45;4.25;;;1.00;;
68216;SDS011;55037;52.354;4.992;2022-09-27T12:15:18;5.67;;;1.00;;
68216;SDS011;55037;52.354;4.992;2022-09-27T12:18:00;5.30;;;1.00;;
68216;SDS011;55037;52.354;4.992;2022-09-27T12:20:34;3.83;;;0.95;;
68216;SDS011;55037;52.354;4.992;2022-09-27T12:23:10;4.60;;;1.03;;
68216;SDS011;55037;52.354;4.992;2022-09-27T12:25:59;4.15;;;1.10;;
68216;SDS011;55037;52.354;4.992;2022-09-27T12:28:53;5.38;;;1.20;;
68216;SDS011;55037;52.354;4.992;2022-09-27T12:31:41;6.93;;;1.30;;
68216;SDS011;55037;52.354;4.992;2022-09-27T12:34:17;5.03;;;1.40;;
68216;SDS011;55037;52.354;4.992;2022-09-27T12:37:30;5.15;;;1.05;;
68216;SDS011;55037;52.354;4.992;2022-09-27T12:40:03;4.18;;;1.02;;
68216;SDS011;55037;52.354;4.992;2022-09-27T12:51:47;4.80;;;1.40;;
68216;SDS011;55037;52.354;4.992;2022-09-27T12:54:42;4.07;;;1.05;;
68216;SDS011;55037;52.354;4.992;2022-09-27T13:00:17;5.57;;;1.50;;
68216;SDS011;55037;52.354;4.992;2022-09-27T13:06:15;3.85;;;1.10;;
68216;SDS011;55037;52.354;4.992;2022-09-27T13:09:27;4.95;;;1.30;;
68216;SDS011;55037;52.354;4.992;2022-09-27T13:12:23;5.43;;;1.23;;
68216;SDS011;55037;52.354;4.992;2022-09-27T13:15:03;6.20;;;1.50;;
68216;SDS011;55037;52.354;4.992;2022-09-27T13:29:07;5.55;;;1.33;;
68216;SDS011;55037;52.354;4.992;2022-09-27T13:34:40;3.58;;;0.98;;
68216;SDS011;55037;52.354;4.992;2022-09-27T13:43:04;3.58;;;1.20;;
68216;SDS011;55037;52.354;4.992;2022-09-27T13:45:54;3.70;;;1.10;;
68216;SDS011;55037;52.354;4.992;2022-09-27T13:48:25;3.58;;;1.10;;
68216;SDS011;55037;52.354;4.992;2022-09-27T13:54:04;3.72;;;1.10;;
68216;SDS011;55037;52.354;4.992;2022-09-27T13:56:52;2.58;;;0.90;;
68216;SDS011;55037;52.354;4.992;2022-09-27T13:59:28;3.35;;;0.85;;
68216;SDS011;55037;52.354;4.992;2022-09-27T14:02:30;3.20;;;1.00;;
68216;SDS011;55037;52.354;4.992;2022-09-27T14:05:05;4.57;;;1.00;;
68216;SDS011;55037;52.354;4.992;2022-09-27T14:07:39;2.88;;;1.17;;
68216;SDS011;55037;52.354;4.992;2022-09-27T14:10:11;4.37;;;1.10;;
68216;SDS011;55037;52.354;4.992;2022-09-27T14:12:43;4.05;;;1.10;;
68216;SDS011;55037;52.354;4.992;2022-09-27T14:15:35;3.60;;;1.13;;
68216;SDS011;55037;52.354;4.992;2022-09-27T14:18:02;3.60;;;1.10;;
68216;SDS011;55037;52.354;4.992;2022-09-27T14:20:30;5.10;;;1.20;;
68216;SDS011;55037;52.354;4.992;2022-09-27T14:23:00;4.88;;;1.35;;
68216;SDS011;55037;52.354;4.992;2022-09-27T14:25:37;6.65;;;1.45;;
68216;SDS011;55037;52.354;4.992;2022-09-27T14:28:17;6.32;;;1.48;;
68216;SDS011;55037;52.354;4.992;2022-09-27T14:31:17;6.50;;;1.40;;
68216;SDS011;55037;52.354;4.992;2022-09-27T14:34:12;4.93;;;1.30;;
68216;SDS011;55037;52.354;4.992;2022-09-27T14:36:44;6.55;;;1.52;;
68216;SDS011;55037;52.354;4.992;2022-09-27T14:39:42;4.20;;;1.40;;
68216;SDS011;55037;52.354;4.992;2022-09-27T14:42:38;4.78;;;1.25;;
68216;SDS011;55037;52.354;4.992;2022-09-27T14:45:24;3.50;;;1.27;;
68216;SDS011;55037;52.354;4.992;2022-09-27T14:47:54;4.38;;;1.33;;
68216;SDS011;55037;52.354;4.992;2022-09-27T14:50:23;3.60;;;1.20;;
68216;SDS011;55037;52.354;4.992;2022-09-27T14:52:52;4.97;;;1.35;;
68216;SDS011;55037;52.354;4.992;2022-09-27T14:55:22;4.72;;;1.50;;
68216;SDS011;55037;52.354;4.992;2022-09-27T14:57:52;2.85;;;1.20;;
68216;SDS011;55037;52.354;4.992;2022-09-27T15:00:23;4.93;;;1.10;;
68216;SDS011;55037;52.354;4.992;2022-09-27T15:02:52;6.72;;;1.48;;
68216;SDS011;55037;52.354;4.992;2022-09-27T15:05:22;4.45;;;1.20;;
68216;SDS011;55037;52.354;4.992;2022-09-27T15:07:52;4.93;;;1.48;;
68216;SDS011;55037;52.354;4.992;2022-09-27T15:10:22;3.80;;;1.40;;
68216;SDS011;55037;52.354;4.992;2022-09-27T15:12:53;5.97;;;1.50;;
68216;SDS011;55037;52.354;4.992;2022-09-27T15:15:30;4.40;;;1.33;;
68216;SDS011;55037;52.354;4.992;2022-09-27T15:18:02;5.28;;;1.52;;
68216;SDS011;55037;52.354;4.992;2022-09-27T15:20:52;3.88;;;1.52;;
68216;SDS011;55037;52.354;4.992;2022-09-27T15:23:25;5.82;;;1.67;;
68216;SDS011;55037;52.354;4.992;2022-09-27T15:25:58;5.65;;;1.50;;
68216;SDS011;55037;52.354;4.992;2022-09-27T15:28:34;5.20;;;1.40;;
68216;SDS011;55037;52.354;4.992;2022-09-27T15:31:04;4.60;;;1.60;;
68216;SDS011;55037;52.354;4.992;2022-09-27T15:33:33;5.95;;;1.60;;
68216;SDS011;55037;52.354;4.992;2022-09-27T15:36:05;3.10;;;1.13;;
68216;SDS011;55037;52.354;4.992;2022-09-27T15:38:40;6.18;;;1.45;;
68216;SDS011;55037;52.354;4.992;2022-09-27T15:41:16;4.60;;;1.60;;
68216;SDS011;55037;52.354;4.992;2022-09-27T15:43:45;6.13;;;1.48;;
68216;SDS011;55037;52.354;4.992;2022-09-27T15:51:43;3.30;;;1.23;;
68216;SDS011;55037;52.354;4.992;2022-09-27T15:54:12;6.67;;;1.33;;
68216;SDS011;55037;52.354;4.992;2022-09-27T15:56:39;4.90;;;1.80;;
68216;SDS011;55037;52.354;4.992;2022-09-27T15:59:10;5.28;;;1.42;;
68216;SDS011;55037;52.354;4.992;2022-09-27T16:01:46;5.57;;;1.20;;
68216;SDS011;55037;52.354;4.992;2022-09-27T16:04:14;5.40;;;1.95;;
68216;SDS011;55037;52.354;4.992;2022-09-27T16:06:41;8.27;;;1.90;;
68216;SDS011;55037;52.354;4.992;2022-09-27T16:09:16;6.22;;;2.08;;
68216;SDS011;55037;52.354;4.992;2022-09-27T16:11:46;4.50;;;1.60;;
68216;SDS011;55037;52.354;4.992;2022-09-27T16:14:15;2.17;;;0.70;;
68216;SDS011;55037;52.354;4.992;2022-09-27T16:16:44;3.87;;;0.80;;
68216;SDS011;55037;52.354;4.992;2022-09-27T16:19:17;2.20;;;0.80;;
68216;SDS011;55037;52.354;4.992;2022-09-27T16:21:44;3.28;;;0.90;;
68216;SDS011;55037;52.354;4.992;2022-09-27T16:24:13;2.22;;;0.80;;
68216;SDS011;55037;52.354;4.992;2022-09-27T16:26:41;3.28;;;0.80;;
68216;SDS011;55037;52.354;4.992;2022-09-27T16:29:09;3.63;;;1.00;;
68216;SDS011;55037;52.354;4.992;2022-09-27T16:31:38;3.97;;;0.88;;
68216;SDS011;55037;52.354;4.992;2022-09-27T16:34:07;5.93;;;1.00;;
68216;SDS011;55037;52.354;4.992;2022-09-27T16:36:35;3.53;;;0.90;;
68216;SDS011;55037;52.354;4.992;2022-09-27T16:39:03;3.73;;;1.00;;
68216;SDS011;55037;52.354;4.992;2022-09-27T16:41:32;3.55;;;0.90;;
68216;SDS011;55037;52.354;4.992;2022-09-27T16:44:04;3.65;;;1.08;;
68216;SDS011;55037;52.354;4.992;2022-09-27T16:46:39;3.00;;;1.00;;
68216;SDS011;55037;52.354;4.992;2022-09-27T16:49:07;4.17;;;1.00;;
68216;SDS011;55037;52.354;4.992;2022-09-27T16:51:53;3.15;;;1.10;;
68216;SDS011;55037;52.354;4.992;2022-09-27T16:54:29;4.18;;;1.48;;
68216;SDS011;55037;52.354;4.992;2022-09-27T16:56:57;4.45;;;1.15;;
68216;SDS011;55037;52.354;4.992;2022-09-27T16:59:25;3.33;;;1.23;;
68216;SDS011;55037;52.354;4.992;2022-09-27T17:01:53;3.85;;;1.05;;
68216;SDS011;55037;52.354;4.992;2022-09-27T17:04:23;4.55;;;1.10;;
68216;SDS011;55037;52.354;4.992;2022-09-27T17:06:52;4.97;;;1.10;;
68216;SDS011;55037;52.354;4.992;2022-09-27T17:09:20;4.20;;;1.10;;
68216;SDS011;55037;52.354;4.992;2022-09-27T17:11:47;3.97;;;1.20;;
68216;SDS011;55037;52.354;4.992;2022-09-27T17:14:15;9.55;;;3.85;;
68216;SDS011;55037;52.354;4.992;2022-09-27T17:16:43;5.35;;;2.20;;
68216;SDS011;55037;52.354;4.992;2022-09-27T17:19:11;4.40;;;1.25;;
68216;SDS011;55037;52.354;4.992;2022-09-27T17:21:39;4.05;;;1.10;;
68216;SDS011;55037;52.354;4.992;2022-09-27T17:24:09;4.32;;;1.27;;
68216;SDS011;55037;52.354;4.992;2022-09-27T17:26:36;4.97;;;1.48;;
68216;SDS011;55037;52.354;4.992;2022-09-27T17:29:03;4.10;;;1.55;;
68216;SDS011;55037;52.354;4.992;2022-09-27T17:31:30;5.70;;;2.35;;
68216;SDS011;55037;52.354;4.992;2022-09-27T17:34:00;6.03;;;3.03;;
68216;SDS011;55037;52.354;4.992;2022-09-27T17:36:29;6.35;;;3.40;;
68216;SDS011;55037;52.354;4.992;2022-09-27T17:39:03;4.20;;;1.23;;
68216;SDS011;55037;52.354;4.992;2022-09-27T17:41:30;4.73;;;1.50;;
68216;SDS011;55037;52.354;4.992;2022-09-27T17:44:05;5.07;;;1.70;;
68216;SDS011;55037;52.354;4.992;2022-09-27T17:46:34;5.78;;;1.67;;
68216;SDS011;55037;52.354;4.992;2022-09-27T17:49:02;5.18;;;1.60;;
68216;SDS011;55037;52.354;4.992;2022-09-27T17:51:49;5.47;;;1.83;;
68216;SDS011;55037;52.354;4.992;2022-09-27T17:54:19;5.05;;;1.80;;
68216;SDS011;55037;52.354;4.992;2022-09-27T17:56:48;5.55;;;1.70;;
68216;SDS011;55037;52.354;4.992;2022-09-27T17:59:16;5.78;;;1.80;;
68216;SDS011;55037;52.354;4.992;2022-09-27T18:01:44;5.40;;;2.20;;
68216;SDS011;55037;52.354;4.992;2022-09-27T18:04:14;6.18;;;2.85;;